TAF KPNC
KPNC 270520Z 2706/2806 19007KT P6SM SKC FM271400 21010KT P6SM FEW250 FM271700 35010G16KT P6SM SCT250 FM280000 35005KT P6SM SKC=
METAR KPNC
WC KPNC
WS KPNC
WV KPNC